Time;durP1;ratioP1;P1;durP2;ratioP2;P2;SDS_P1;SDS_P2;PMS_P1;PMS_P2;Temp;Humidity;BMP_temperature;BMP_pressure;BME280_temperature;BME280_humidity;BME280_pressure;Samples;Min_cycle;Max_cycle;Signal;HPM_P1;HPM_P2
2022/09/03 00:02:22;;;;;;;8.90;3.75;;;;;;;;;;4994607;28;20407;-66
2022/09/03 00:05:09;;;;;;;6.22;2.85;;;;;;;;;;4961887;28;20057;-66
2022/09/03 00:07:47;;;;;;;5.88;2.85;;;;;;;;;;4978146;28;20054;-66
2022/09/03 00:10:57;;;;;;;7.90;3.33;;;;;;;;;;4977557;28;20053;-66
2022/09/03 00:13:37;;;;;;;7.25;3.45;;;;;;;;;;4970884;28;20171;-65
2022/09/03 00:16:12;;;;;;;7.85;3.83;;;;;;;;;;4971235;28;20055;-66
2022/09/03 00:18:55;;;;;;;9.65;3.45;;;;;;;;;;4980297;28;20055;-66
2022/09/03 00:21:33;;;;;;;7.70;3.90;;;;;;;;;;4968918;28;20067;-66
2022/09/03 00:24:07;;;;;;;6.72;2.97;;;;;;;;;;4986497;28;20506;-67
2022/09/03 00:26:50;;;;;;;5.88;3.08;;;;;;;;;;5025981;28;20064;-66
2022/09/03 00:29:52;;;;;;;7.18;3.65;;;;;;;;;;5027920;28;20428;-66
2022/09/03 00:32:46;;;;;;;7.38;3.50;;;;;;;;;;4953840;28;20048;-66
2022/09/03 00:35:31;;;;;;;7.43;3.67;;;;;;;;;;4980573;28;20054;-66
2022/09/03 00:38:02;;;;;;;7.75;3.58;;;;;;;;;;4984328;28;20165;-66
2022/09/03 00:40:59;;;;;;;7.00;3.50;;;;;;;;;;4990176;28;20149;-66
2022/09/03 00:43:38;;;;;;;5.18;2.20;;;;;;;;;;4989959;28;20055;-65
2022/09/03 00:46:31;;;;;;;5.45;2.50;;;;;;;;;;4990078;28;20054;-65
2022/09/03 00:49:04;;;;;;;3.80;1.83;;;;;;;;;;4990148;28;20413;-66
2022/09/03 00:51:37;;;;;;;4.43;1.50;;;;;;;;;;4972857;28;20066;-66
2022/09/03 00:54:24;;;;;;;3.65;1.60;;;;;;;;;;4970664;28;20069;-67
2022/09/03 00:57:05;;;;;;;4.97;1.73;;;;;;;;;;4950791;29;20055;-67
2022/09/03 00:59:42;;;;;;;3.45;1.50;;;;;;;;;;4951469;29;20054;-67
2022/09/03 01:02:27;;;;;;;2.30;1.05;;;;;;;;;;4951214;29;20055;-67
2022/09/03 01:05:33;;;;;;;2.88;1.38;;;;;;;;;;4951417;29;20059;-67
2022/09/03 01:08:07;;;;;;;3.10;1.20;;;;;;;;;;4925896;28;20058;-66
2022/09/03 01:11:10;;;;;;;2.78;1.00;;;;;;;;;;4977757;28;20058;-65
2022/09/03 01:14:18;;;;;;;3.80;1.17;;;;;;;;;;5001764;28;20065;-66
2022/09/03 01:16:52;;;;;;;1.30;0.77;;;;;;;;;;4970721;28;20069;-65
2022/09/03 01:19:37;;;;;;;1.52;0.77;;;;;;;;;;4950627;29;20535;-65
2022/09/03 01:22:43;;;;;;;2.22;0.95;;;;;;;;;;4951002;29;20062;-65
2022/09/03 01:25:16;;;;;;;2.28;0.90;;;;;;;;;;4932145;29;20063;-65
2022/09/03 01:28:12;;;;;;;2.22;1.00;;;;;;;;;;4931932;29;20546;-66
2022/09/03 01:30:47;;;;;;;2.40;0.90;;;;;;;;;;4947081;29;20052;-65
2022/09/03 01:33:38;;;;;;;2.28;1.10;;;;;;;;;;4931911;29;20059;-66
2022/09/03 01:36:40;;;;;;;3.92;1.10;;;;;;;;;;4931721;29;20059;-67
2022/09/03 01:39:24;;;;;;;2.58;0.82;;;;;;;;;;4947178;29;20067;-68
2022/09/03 01:42:15;;;;;;;2.20;1.10;;;;;;;;;;4931539;29;20059;-68
2022/09/03 01:45:20;;;;;;;1.88;0.90;;;;;;;;;;4931984;29;20096;-68
2022/09/03 01:48:07;;;;;;;1.45;0.80;;;;;;;;;;4884726;29;20060;-66
2022/09/03 01:51:21;;;;;;;1.85;1.00;;;;;;;;;;4931651;29;20048;-66
2022/09/03 01:53:56;;;;;;;3.15;0.80;;;;;;;;;;4963268;28;20062;-66
2022/09/03 01:56:45;;;;;;;2.28;0.90;;;;;;;;;;4989522;28;20054;-66
2022/09/03 01:59:54;;;;;;;1.80;1.02;;;;;;;;;;5022080;28;20054;-66
2022/09/03 02:02:26;;;;;;;2.30;0.95;;;;;;;;;;4970296;28;20059;-66
2022/09/03 02:05:08;;;;;;;1.48;0.77;;;;;;;;;;4935174;29;20048;-65
2022/09/03 02:07:50;;;;;;;1.55;0.80;;;;;;;;;;4935311;29;20087;-66
2022/09/03 02:10:42;;;;;;;1.45;0.77;;;;;;;;;;4935277;29;20059;-65
2022/09/03 02:13:22;;;;;;;1.98;0.80;;;;;;;;;;4919300;29;20063;-66
2022/09/03 02:15:55;;;;;;;4.35;0.80;;;;;;;;;;4950715;28;20050;-66
2022/09/03 02:18:33;;;;;;;4.32;1.08;;;;;;;;;;4993221;28;20050;-65
2022/09/03 02:21:04;;;;;;;2.35;0.70;;;;;;;;;;4960753;28;20073;-65
2022/09/03 02:23:34;;;;;;;2.30;0.80;;;;;;;;;;4992959;28;20506;-66
2022/09/03 02:26:07;;;;;;;1.75;1.00;;;;;;;;;;4954069;28;20436;-65
2022/09/03 02:28:38;;;;;;;1.60;0.80;;;;;;;;;;4973584;28;20411;-65
2022/09/03 02:31:08;;;;;;;2.10;0.95;;;;;;;;;;4973220;28;20071;-65
2022/09/03 02:33:41;;;;;;;2.05;0.85;;;;;;;;;;4973510;28;20054;-66
2022/09/03 02:36:16;;;;;;;6.57;1.02;;;;;;;;;;4934723;29;20052;-66
2022/09/03 02:38:47;;;;;;;1.20;0.60;;;;;;;;;;4924368;29;20535;-66
2022/09/03 02:41:17;;;;;;;2.08;1.00;;;;;;;;;;4973031;28;20511;-65
2022/09/03 02:43:58;;;;;;;1.80;0.70;;;;;;;;;;4992029;28;20160;-65
2022/09/03 02:46:36;;;;;;;1.67;0.63;;;;;;;;;;4992298;28;20061;-66
2022/09/03 02:49:07;;;;;;;2.05;0.90;;;;;;;;;;4972988;28;20054;-66
2022/09/03 02:51:41;;;;;;;1.80;0.82;;;;;;;;;;4956500;28;20050;-65
2022/09/03 02:54:12;;;;;;;1.95;0.93;;;;;;;;;;4940885;28;20066;-65
2022/09/03 02:56:49;;;;;;;2.97;1.27;;;;;;;;;;4955600;28;20467;-65
2022/09/03 02:59:21;;;;;;;2.10;0.80;;;;;;;;;;4972690;28;20051;-65
2022/09/03 03:01:51;;;;;;;1.73;1.17;;;;;;;;;;4972948;28;20415;-65
2022/09/03 03:04:22;;;;;;;1.20;0.60;;;;;;;;;;4988212;28;20058;-65
2022/09/03 03:06:53;;;;;;;0.60;0.40;;;;;;;;;;5004613;28;20417;-64
2022/09/03 03:09:23;;;;;;;1.58;0.60;;;;;;;;;;5031408;28;20068;-66
2022/09/03 03:11:54;;;;;;;2.13;0.70;;;;;;;;;;5031319;28;20072;-65
2022/09/03 03:14:24;;;;;;;1.70;0.77;;;;;;;;;;5013760;28;20057;-65
2022/09/03 03:16:54;;;;;;;1.90;0.77;;;;;;;;;;5031351;28;20445;-66
2022/09/03 03:19:25;;;;;;;1.85;0.93;;;;;;;;;;5031388;28;20445;-65
2022/09/03 03:21:55;;;;;;;2.40;0.88;;;;;;;;;;5031260;28;20049;-66
2022/09/03 03:24:26;;;;;;;1.80;0.85;;;;;;;;;;4991902;28;20403;-65
2022/09/03 03:26:58;;;;;;;3.22;1.05;;;;;;;;;;4982985;28;20704;-65
2022/09/03 03:29:29;;;;;;;1.90;0.70;;;;;;;;;;4992018;28;20577;-65
2022/09/03 03:31:59;;;;;;;1.40;0.80;;;;;;;;;;4992171;28;20066;-65
2022/09/03 03:34:29;;;;;;;1.83;0.88;;;;;;;;;;4991552;28;20058;-65
2022/09/03 03:36:59;;;;;;;2.78;0.82;;;;;;;;;;4991762;28;20058;-65
2022/09/03 03:39:29;;;;;;;1.30;0.63;;;;;;;;;;4991660;28;20410;-66
2022/09/03 03:41:59;;;;;;;1.95;0.70;;;;;;;;;;4991537;28;20069;-66
2022/09/03 03:44:30;;;;;;;1.95;0.70;;;;;;;;;;4991865;28;20069;-65
2022/09/03 03:47:04;;;;;;;1.00;0.60;;;;;;;;;;4991629;28;20054;-65
2022/09/03 03:49:35;;;;;;;1.95;0.98;;;;;;;;;;5001738;28;20093;-66
2022/09/03 03:52:05;;;;;;;1.27;0.70;;;;;;;;;;4961945;28;20572;-65
2022/09/03 03:54:35;;;;;;;2.25;1.30;;;;;;;;;;4978434;28;20058;-65
2022/09/03 03:57:05;;;;;;;3.65;0.77;;;;;;;;;;4962329;28;20065;-65
2022/09/03 03:59:37;;;;;;;1.52;0.75;;;;;;;;;;5010916;28;20499;-66
2022/09/03 04:02:08;;;;;;;2.28;0.68;;;;;;;;;;5032070;28;20053;-65
2022/09/03 04:04:38;;;;;;;2.35;1.08;;;;;;;;;;5061006;28;20079;-66
2022/09/03 04:07:08;;;;;;;1.75;0.80;;;;;;;;;;5070442;28;20056;-66
2022/09/03 04:09:38;;;;;;;2.25;0.75;;;;;;;;;;5037095;28;20552;-66
2022/09/03 04:12:09;;;;;;;1.23;0.52;;;;;;;;;;5054005;28;20041;-65
2022/09/03 04:14:39;;;;;;;2.38;0.80;;;;;;;;;;5070667;28;20065;-66
2022/09/03 04:17:10;;;;;;;2.67;0.98;;;;;;;;;;5053600;28;20056;-66
2022/09/03 04:19:40;;;;;;;2.72;0.80;;;;;;;;;;5070221;28;20084;-66
2022/09/03 04:22:10;;;;;;;3.22;0.98;;;;;;;;;;5070192;28;20040;-66
2022/09/03 04:24:41;;;;;;;5.00;0.63;;;;;;;;;;5070039;28;20064;-66
2022/09/03 04:27:11;;;;;;;1.65;0.70;;;;;;;;;;5076864;28;20060;-66
2022/09/03 04:29:41;;;;;;;1.90;0.70;;;;;;;;;;5072728;28;20049;-66
2022/09/03 04:35:01;;;;;;;2.40;0.88;;;;;;;;;;5053806;28;20080;-66
2022/09/03 04:37:32;;;;;;;2.83;0.90;;;;;;;;;;5070999;28;20051;-65
2022/09/03 04:40:03;;;;;;;1.63;1.17;;;;;;;;;;5053316;28;20397;-66
2022/09/03 04:42:34;;;;;;;2.75;0.70;;;;;;;;;;5072050;28;20397;-65
2022/09/03 04:45:05;;;;;;;4.65;1.00;;;;;;;;;;5053323;28;20598;-66
2022/09/03 04:47:37;;;;;;;1.50;0.82;;;;;;;;;;5072208;28;20424;-65
2022/09/03 04:50:08;;;;;;;2.40;1.13;;;;;;;;;;5072001;28;20048;-66
2022/09/03 04:52:39;;;;;;;5.68;0.90;;;;;;;;;;5072156;28;20044;-66
2022/09/03 04:55:10;;;;;;;1.48;0.68;;;;;;;;;;5053219;28;20535;-65
2022/09/03 04:57:41;;;;;;;1.17;0.60;;;;;;;;;;5036592;28;20052;-66
2022/09/03 05:00:12;;;;;;;0.95;0.60;;;;;;;;;;5069235;28;20052;-66
2022/09/03 05:02:47;;;;;;;1.60;0.80;;;;;;;;;;5053244;28;20048;-66
2022/09/03 05:05:18;;;;;;;1.15;0.63;;;;;;;;;;5053191;28;20057;-65
2022/09/03 05:07:49;;;;;;;3.67;0.70;;;;;;;;;;5069317;28;20151;-65
2022/09/03 05:10:19;;;;;;;2.15;1.20;;;;;;;;;;5069658;28;20076;-66
2022/09/03 05:13:05;;;;;;;1.77;0.82;;;;;;;;;;5052458;28;20532;-65
2022/09/03 05:15:36;;;;;;;2.38;1.00;;;;;;;;;;5036124;28;20435;-65
2022/09/03 05:18:06;;;;;;;2.33;0.77;;;;;;;;;;5069356;28;20053;-65
2022/09/03 05:20:36;;;;;;;3.30;1.20;;;;;;;;;;5068904;28;20049;-65
2022/09/03 05:23:06;;;;;;;3.42;0.85;;;;;;;;;;5048939;28;20049;-65
2022/09/03 05:25:37;;;;;;;2.10;0.77;;;;;;;;;;4992877;28;20057;-65
2022/09/03 05:28:09;;;;;;;2.22;0.77;;;;;;;;;;4977483;28;20053;-65
2022/09/03 05:30:39;;;;;;;1.80;0.90;;;;;;;;;;4976860;28;20062;-66
2022/09/03 05:33:09;;;;;;;3.15;1.10;;;;;;;;;;4992911;28;20494;-65
2022/09/03 05:35:40;;;;;;;1.92;0.70;;;;;;;;;;5009745;28;20062;-65
2022/09/03 05:38:10;;;;;;;1.45;0.70;;;;;;;;;;4957297;28;20050;-65
2022/09/03 05:40:40;;;;;;;2.25;0.82;;;;;;;;;;4945922;28;20054;-66
2022/09/03 05:43:10;;;;;;;1.92;0.85;;;;;;;;;;4961219;28;20054;-65
2022/09/03 05:45:40;;;;;;;2.45;0.90;;;;;;;;;;4977579;28;20085;-65
2022/09/03 05:48:11;;;;;;;1.83;0.88;;;;;;;;;;4993806;28;20059;-65
2022/09/03 05:50:41;;;;;;;2.20;0.80;;;;;;;;;;4993827;28;20054;-65
2022/09/03 05:53:11;;;;;;;1.58;0.95;;;;;;;;;;4993315;28;20050;-65
2022/09/03 05:55:41;;;;;;;1.75;0.90;;;;;;;;;;4993573;28;20046;-65
2022/09/03 05:58:11;;;;;;;1.60;0.90;;;;;;;;;;4993583;28;20062;-65
2022/09/03 06:00:41;;;;;;;2.65;0.90;;;;;;;;;;5012249;28;20062;-65
2022/09/03 06:03:12;;;;;;;2.65;0.90;;;;;;;;;;5051910;28;20056;-65
2022/09/03 06:05:53;;;;;;;3.08;0.90;;;;;;;;;;5022743;28;20056;-65
2022/09/03 06:08:23;;;;;;;2.17;1.13;;;;;;;;;;5072185;28;20060;-66
2022/09/03 06:11:05;;;;;;;1.90;1.05;;;;;;;;;;5072703;28;20056;-66
2022/09/03 06:13:36;;;;;;;3.00;1.17;;;;;;;;;;5022762;28;20076;-65
2022/09/03 06:16:07;;;;;;;2.20;0.98;;;;;;;;;;5085154;28;20067;-65
2022/09/03 06:18:38;;;;;;;3.15;1.17;;;;;;;;;;5075845;28;20086;-65
2022/09/03 06:21:08;;;;;;;2.17;1.10;;;;;;;;;;5092806;28;20399;-66
2022/09/03 06:23:41;;;;;;;1.77;0.98;;;;;;;;;;5092536;28;20071;-65
2022/09/03 06:26:15;;;;;;;1.98;0.93;;;;;;;;;;5076394;28;20044;-65
2022/09/03 06:28:47;;;;;;;2.25;0.98;;;;;;;;;;5076035;28;20066;-66
2022/09/03 06:31:18;;;;;;;4.68;1.13;;;;;;;;;;5042394;28;20551;-65
2022/09/03 06:33:49;;;;;;;3.80;1.33;;;;;;;;;;5092498;28;20523;-65
2022/09/03 06:36:21;;;;;;;3.47;1.27;;;;;;;;;;5092373;28;20056;-65
2022/09/03 06:38:54;;;;;;;3.40;1.40;;;;;;;;;;5032006;28;20061;-66
2022/09/03 06:41:27;;;;;;;3.05;1.20;;;;;;;;;;5012157;28;20053;-65
2022/09/03 06:44:03;;;;;;;3.10;1.45;;;;;;;;;;5012210;28;20443;-65
2022/09/03 06:46:37;;;;;;;3.15;1.52;;;;;;;;;;4996336;28;20065;-66
2022/09/03 06:49:09;;;;;;;3.28;1.30;;;;;;;;;;5011589;28;20042;-65
2022/09/03 06:51:39;;;;;;;3.15;1.65;;;;;;;;;;5012260;28;21058;-65
2022/09/03 06:54:12;;;;;;;3.38;1.25;;;;;;;;;;4992362;28;20054;-66
2022/09/03 06:56:42;;;;;;;1.10;0.50;;;;;;;;;;4992198;28;20553;-69
2022/09/03 06:59:15;;;;;;;2.90;1.50;;;;;;;;;;4992304;28;20065;-65
2022/09/03 07:01:48;;;;;;;3.80;1.60;;;;;;;;;;4975750;28;20486;-66
2022/09/03 07:04:20;;;;;;;3.83;1.63;;;;;;;;;;4992535;28;20065;-65
2022/09/03 07:06:51;;;;;;;4.82;1.63;;;;;;;;;;4992201;28;20194;-65
2022/09/03 07:09:21;;;;;;;5.05;1.63;;;;;;;;;;4992140;28;20054;-65
2022/09/03 07:11:52;;;;;;;2.95;1.60;;;;;;;;;;4992280;28;20054;-65
2022/09/03 07:14:23;;;;;;;4.05;1.77;;;;;;;;;;4992020;28;20395;-65
2022/09/03 07:16:55;;;;;;;4.13;1.70;;;;;;;;;;5017239;28;20048;-65
2022/09/03 07:19:25;;;;;;;3.88;1.60;;;;;;;;;;5011200;28;20068;-65
2022/09/03 07:21:55;;;;;;;3.20;1.35;;;;;;;;;;5011781;28;20050;-66
2022/09/03 07:24:26;;;;;;;3.92;1.98;;;;;;;;;;5011229;28;20497;-65
2022/09/03 07:26:57;;;;;;;4.25;1.70;;;;;;;;;;4978700;28;20046;-66
2022/09/03 07:29:27;;;;;;;3.72;1.90;;;;;;;;;;4991645;28;20422;-65
2022/09/03 07:31:57;;;;;;;3.42;1.27;;;;;;;;;;5002466;28;20058;-65
2022/09/03 07:34:28;;;;;;;5.43;1.67;;;;;;;;;;5011142;28;20062;-65
2022/09/03 07:36:58;;;;;;;5.35;1.60;;;;;;;;;;5011412;28;20105;-65
2022/09/03 07:39:32;;;;;;;4.10;1.85;;;;;;;;;;4997946;28;20065;-65
2022/09/03 07:42:02;;;;;;;3.95;1.52;;;;;;;;;;4975229;28;20055;-65
2022/09/03 07:44:32;;;;;;;4.68;1.60;;;;;;;;;;4991446;28;20156;-65
2022/09/03 07:47:02;;;;;;;4.57;1.95;;;;;;;;;;4971892;28;20043;-65
2022/09/03 07:49:32;;;;;;;2.80;1.10;;;;;;;;;;4939735;28;20051;-66
2022/09/03 07:52:02;;;;;;;4.35;1.45;;;;;;;;;;4972068;28;20066;-65
2022/09/03 07:54:33;;;;;;;6.35;1.90;;;;;;;;;;4955519;28;20518;-65
2022/09/03 07:57:03;;;;;;;3.33;1.67;;;;;;;;;;4981654;28;20061;-65
2022/09/03 07:59:34;;;;;;;3.78;1.73;;;;;;;;;;4990958;28;20061;-65
2022/09/03 08:02:04;;;;;;;4.40;1.55;;;;;;;;;;4958654;28;20059;-65
2022/09/03 08:04:35;;;;;;;4.30;1.75;;;;;;;;;;4991699;28;20066;-65
2022/09/03 08:07:05;;;;;;;6.40;1.80;;;;;;;;;;4984992;28;20046;-65
2022/09/03 08:09:35;;;;;;;4.63;1.70;;;;;;;;;;5010636;28;20054;-65
2022/09/03 08:12:06;;;;;;;7.28;2.35;;;;;;;;;;5010983;28;20058;-65
2022/09/03 08:14:36;;;;;;;2.10;1.17;;;;;;;;;;5010659;28;20069;-66
2022/09/03 08:17:07;;;;;;;5.68;2.10;;;;;;;;;;5031765;28;20060;-65
2022/09/03 08:19:37;;;;;;;4.97;2.00;;;;;;;;;;5072653;28;20048;-65
2022/09/03 08:22:07;;;;;;;5.32;1.92;;;;;;;;;;5071336;28;20389;-65
2022/09/03 08:24:37;;;;;;;3.88;1.95;;;;;;;;;;5037059;28;20048;-65
2022/09/03 08:27:07;;;;;;;4.00;1.73;;;;;;;;;;5037202;28;20428;-66
2022/09/03 08:29:37;;;;;;;2.67;1.25;;;;;;;;;;5072386;28;20039;-65
2022/09/03 08:32:07;;;;;;;5.28;2.03;;;;;;;;;;5019862;28;20484;-65
2022/09/03 08:34:42;;;;;;;4.03;1.88;;;;;;;;;;5049522;28;20048;-65
2022/09/03 08:37:12;;;;;;;5.35;1.95;;;;;;;;;;5013232;28;20057;-65
2022/09/03 08:39:42;;;;;;;8.02;2.20;;;;;;;;;;5029791;28;20064;-65
2022/09/03 08:42:13;;;;;;;6.55;2.30;;;;;;;;;;5029807;28;20053;-65
2022/09/03 08:44:54;;;;;;;5.88;2.40;;;;;;;;;;4990125;28;20058;-65
2022/09/03 08:47:29;;;;;;;4.90;2.28;;;;;;;;;;4990446;28;20129;-65
2022/09/03 08:50:03;;;;;;;5.20;2.20;;;;;;;;;;4990229;28;20498;-65
2022/09/03 08:52:49;;;;;;;5.22;2.13;;;;;;;;;;4990293;28;20050;-65
2022/09/03 08:55:30;;;;;;;7.55;1.83;;;;;;;;;;4990305;28;20046;-65
2022/09/03 08:58:29;;;;;;;8.48;2.83;;;;;;;;;;4990526;28;20463;-65
2022/09/03 09:01:10;;;;;;;4.57;2.15;;;;;;;;;;4894428;29;20065;-65
2022/09/03 09:03:52;;;;;;;5.03;2.28;;;;;;;;;;4894429;29;20060;-64
2022/09/03 09:06:47;;;;;;;4.88;2.30;;;;;;;;;;4848244;29;20564;-65
2022/09/03 09:09:47;;;;;;;4.63;1.70;;;;;;;;;;4900303;29;20056;-64
2022/09/03 09:12:18;;;;;;;3.30;1.60;;;;;;;;;;4907999;29;20434;-64
2022/09/03 09:14:48;;;;;;;4.25;1.80;;;;;;;;;;4903389;29;20074;-65
2022/09/03 09:17:26;;;;;;;5.90;2.30;;;;;;;;;;4875324;29;20559;-64
2022/09/03 09:20:15;;;;;;;5.28;2.25;;;;;;;;;;4890852;29;20064;-65
2022/09/03 09:22:50;;;;;;;6.20;1.85;;;;;;;;;;4887812;29;20057;-64
2022/09/03 09:25:25;;;;;;;7.30;2.20;;;;;;;;;;4894202;29;20501;-65
2022/09/03 09:28:13;;;;;;;6.78;2.60;;;;;;;;;;4894441;29;20093;-65
2022/09/03 09:30:47;;;;;;;7.22;2.30;;;;;;;;;;4893282;29;20052;-65
2022/09/03 09:33:19;;;;;;;6.07;2.38;;;;;;;;;;4878779;29;20456;-64
2022/09/03 09:35:51;;;;;;;6.75;2.17;;;;;;;;;;4909330;29;20057;-65
2022/09/03 09:38:38;;;;;;;5.97;2.10;;;;;;;;;;4969962;28;20056;-64
2022/09/03 09:41:22;;;;;;;4.45;2.20;;;;;;;;;;5045697;28;20049;-65
2022/09/03 09:44:02;;;;;;;5.22;2.53;;;;;;;;;;5027181;28;20060;-64
2022/09/03 09:46:39;;;;;;;4.63;2.13;;;;;;;;;;5029317;28;20053;-65
2022/09/03 09:49:28;;;;;;;4.70;2.13;;;;;;;;;;5029199;28;20054;-64
2022/09/03 09:52:12;;;;;;;6.97;2.67;;;;;;;;;;5012529;28;20072;-65
2022/09/03 09:54:45;;;;;;;7.50;2.63;;;;;;;;;;5045572;28;20052;-65
2022/09/03 09:57:23;;;;;;;7.85;2.65;;;;;;;;;;5036004;28;20071;-65
2022/09/03 10:00:15;;;;;;;5.60;2.63;;;;;;;;;;5071558;28;20044;-65
2022/09/03 10:02:53;;;;;;;5.18;2.30;;;;;;;;;;5085857;28;20408;-65
2022/09/03 10:05:37;;;;;;;6.63;3.00;;;;;;;;;;5035950;28;20777;-66
2022/09/03 10:08:21;;;;;;;52.35;18.92;;;;;;;;;;5071400;28;20049;-66
2022/09/03 10:10:51;;;;;;;27.67;12.40;;;;;;;;;;5071266;28;20048;-65
2022/09/03 10:13:36;;;;;;;8.73;4.15;;;;;;;;;;5070950;28;20382;-66
2022/09/03 10:16:21;;;;;;;5.95;2.58;;;;;;;;;;5069834;28;20048;-65
2022/09/03 10:19:15;;;;;;;8.00;2.30;;;;;;;;;;5071226;28;20503;-65
2022/09/03 10:22:02;;;;;;;6.78;2.88;;;;;;;;;;5071065;28;20472;-65
2022/09/03 10:25:05;;;;;;;7.70;3.70;;;;;;;;;;5007024;28;20055;-65
2022/09/03 10:27:37;;;;;;;10.95;3.38;;;;;;;;;;5012917;28;20053;-65
2022/09/03 10:30:10;;;;;;;4.90;2.83;;;;;;;;;;5012683;28;20054;-65
2022/09/03 10:33:25;;;;;;;5.00;2.15;;;;;;;;;;5012567;28;20045;-65
2022/09/03 10:36:28;;;;;;;5.38;2.15;;;;;;;;;;4934814;29;20063;-65
2022/09/03 10:39:33;;;;;;;7.60;2.80;;;;;;;;;;4934994;29;20048;-65
2022/09/03 10:42:30;;;;;;;8.48;3.92;;;;;;;;;;4934667;29;20051;-65
2022/09/03 10:45:23;;;;;;;5.97;2.60;;;;;;;;;;4934900;29;20405;-65
2022/09/03 10:47:57;;;;;;;5.63;2.53;;;;;;;;;;4919251;29;20085;-65
2022/09/03 10:50:33;;;;;;;6.45;2.92;;;;;;;;;;4934902;29;20512;-65
2022/09/03 10:53:07;;;;;;;5.90;2.90;;;;;;;;;;4896376;29;20064;-65
2022/09/03 10:55:59;;;;;;;7.25;2.38;;;;;;;;;;4896926;29;20056;-66
2022/09/03 10:58:44;;;;;;;4.45;2.17;;;;;;;;;;4896962;29;20060;-65
2022/09/03 11:01:42;;;;;;;5.82;1.77;;;;;;;;;;4898545;29;20044;-65
2022/09/03 11:04:31;;;;;;;4.07;1.90;;;;;;;;;;4965707;28;20617;-65
2022/09/03 11:07:12;;;;;;;4.78;2.58;;;;;;;;;;4953636;29;20550;-65
2022/09/03 11:10:27;;;;;;;4.80;2.25;;;;;;;;;;4953640;29;20067;-65
2022/09/03 11:13:20;;;;;;;6.35;2.80;;;;;;;;;;4938004;29;20056;-65
2022/09/03 11:16:06;;;;;;;4.95;2.50;;;;;;;;;;4953464;29;20155;-66
2022/09/03 11:19:03;;;;;;;7.85;3.70;;;;;;;;;;4959976;28;20066;-65
2022/09/03 11:21:36;;;;;;;4.85;2.17;;;;;;;;;;4972670;28;20065;-65
2022/09/03 11:24:12;;;;;;;3.78;1.55;;;;;;;;;;4952947;29;20055;-65
2022/09/03 11:27:01;;;;;;;7.82;3.88;;;;;;;;;;4953362;29;20381;-66
2022/09/03 11:29:45;;;;;;;7.47;3.30;;;;;;;;;;4953572;28;20070;-66
2022/09/03 11:32:22;;;;;;;7.20;3.20;;;;;;;;;;4942686;28;20415;-65
2022/09/03 11:34:54;;;;;;;5.82;2.63;;;;;;;;;;4971456;28;20051;-65
2022/09/03 11:37:27;;;;;;;5.72;2.72;;;;;;;;;;4952920;28;20059;-65
2022/09/03 11:40:17;;;;;;;6.68;2.97;;;;;;;;;;4952973;28;20055;-66
2022/09/03 11:42:47;;;;;;;6.32;2.78;;;;;;;;;;4955715;28;20051;-65
2022/09/03 11:45:26;;;;;;;5.45;2.50;;;;;;;;;;4969559;28;20163;-66
2022/09/03 11:47:58;;;;;;;12.32;3.60;;;;;;;;;;4962722;28;20595;-65
2022/09/03 11:50:31;;;;;;;4.32;1.98;;;;;;;;;;5010967;28;20155;-65
2022/09/03 11:53:35;;;;;;;8.88;3.40;;;;;;;;;;5011077;28;20054;-65
2022/09/03 11:56:06;;;;;;;5.10;2.22;;;;;;;;;;4979301;28;20061;-66
2022/09/03 11:58:41;;;;;;;4.38;2.08;;;;;;;;;;4978242;28;20069;-65
2022/09/03 12:01:16;;;;;;;6.28;2.60;;;;;;;;;;4991111;28;20054;-65
2022/09/03 12:03:53;;;;;;;7.85;2.78;;;;;;;;;;4998854;28;20802;-66
2022/09/03 12:06:38;;;;;;;8.20;3.38;;;;;;;;;;5010325;28;20050;-66
2022/09/03 12:09:31;;;;;;;4.22;2.00;;;;;;;;;;5008957;28;20053;-65
2022/09/03 12:12:28;;;;;;;5.32;2.38;;;;;;;;;;4990786;28;20066;-65
2022/09/03 12:15:04;;;;;;;6.50;2.78;;;;;;;;;;4952220;28;20070;-66
2022/09/03 12:20:43;;;;;;;5.25;2.33;;;;;;;;;;5010412;28;20054;-65
2022/09/03 12:23:46;;;;;;;9.90;2.63;;;;;;;;;;5022742;28;20760;-65
2022/09/03 12:26:19;;;;;;;6.72;2.72;;;;;;;;;;4990642;28;20065;-65
2022/09/03 12:28:57;;;;;;;6.50;2.10;;;;;;;;;;4974065;28;20502;-65
2022/09/03 12:31:30;;;;;;;4.43;1.60;;;;;;;;;;4975127;28;20057;-65
2022/09/03 12:34:07;;;;;;;4.82;2.17;;;;;;;;;;5010052;28;20053;-66
2022/09/03 12:36:46;;;;;;;5.18;2.83;;;;;;;;;;5010210;28;20094;-66
2022/09/03 12:39:28;;;;;;;4.43;1.92;;;;;;;;;;5009870;28;20085;-65
2022/09/03 12:42:36;;;;;;;5.95;2.03;;;;;;;;;;4990161;28;20065;-65
2022/09/03 12:45:14;;;;;;;5.43;2.38;;;;;;;;;;4990580;28;20058;-65
2022/09/03 12:47:45;;;;;;;5.25;2.28;;;;;;;;;;4957801;28;20050;-65
2022/09/03 12:50:19;;;;;;;5.82;2.53;;;;;;;;;;4924595;28;20058;-66
2022/09/03 12:52:56;;;;;;;4.70;1.98;;;;;;;;;;4919608;29;20055;-66
2022/09/03 12:55:52;;;;;;;5.30;2.03;;;;;;;;;;4935448;28;20160;-66
2022/09/03 12:58:53;;;;;;;6.45;2.92;;;;;;;;;;4954989;28;20067;-65
2022/09/03 13:01:30;;;;;;;3.50;1.70;;;;;;;;;;4951195;28;20055;-66
2022/09/03 13:04:15;;;;;;;8.82;3.28;;;;;;;;;;4978274;28;20062;-65
2022/09/03 13:06:59;;;;;;;20.75;7.20;;;;;;;;;;4974218;28;20454;-66
2022/09/03 13:09:35;;;;;;;6.82;3.22;;;;;;;;;;4989712;28;20414;-67
2022/09/03 13:12:06;;;;;;;14.45;5.05;;;;;;;;;;5002862;28;20053;-66
2022/09/03 13:14:46;;;;;;;4.65;2.35;;;;;;;;;;4977189;28;20054;-66
2022/09/03 13:17:26;;;;;;;9.85;4.32;;;;;;;;;;5009824;28;20057;-65
2022/09/03 13:20:09;;;;;;;8.48;4.38;;;;;;;;;;5019420;28;20058;-65
2022/09/03 13:23:08;;;;;;;5.85;2.40;;;;;;;;;;4996908;28;20053;-66
2022/09/03 13:25:47;;;;;;;11.40;6.68;;;;;;;;;;5029328;28;20054;-66
2022/09/03 13:28:28;;;;;;;10.18;5.32;;;;;;;;;;4989921;28;20047;-65
2022/09/03 13:31:39;;;;;;;7.75;3.65;;;;;;;;;;4974247;28;20062;-66
2022/09/03 13:34:30;;;;;;;8.55;3.00;;;;;;;;;;4912908;29;20052;-66
2022/09/03 13:37:33;;;;;;;6.43;2.78;;;;;;;;;;4897812;29;20052;-66
2022/09/03 13:40:18;;;;;;;4.10;1.40;;;;;;;;;;4912911;29;20059;-66
2022/09/03 13:42:56;;;;;;;4.90;1.90;;;;;;;;;;4897261;29;20056;-66
2022/09/03 13:45:59;;;;;;;7.10;2.75;;;;;;;;;;4913131;29;20520;-66
2022/09/03 13:51:35;;;;;;;6.03;2.17;;;;;;;;;;4912551;29;20535;-66
2022/09/03 13:54:16;;;;;;;4.68;2.00;;;;;;;;;;4912704;29;20587;-66
2022/09/03 13:57:30;;;;;;;3.17;1.20;;;;;;;;;;4913003;29;20051;-67
2022/09/03 14:00:13;;;;;;;2.55;1.30;;;;;;;;;;4902690;29;20561;-66
2022/09/03 14:03:18;;;;;;;1.55;0.82;;;;;;;;;;4916589;29;20051;-66
2022/09/03 14:06:07;;;;;;;2.67;1.30;;;;;;;;;;4933664;29;20068;-67
2022/09/03 14:08:51;;;;;;;3.05;1.58;;;;;;;;;;4954906;29;20051;-66
2022/09/03 14:11:53;;;;;;;3.92;2.35;;;;;;;;;;5025003;28;20056;-66
2022/09/03 14:14:45;;;;;;;4.50;1.48;;;;;;;;;;5052510;28;20059;-66
2022/09/03 14:17:32;;;;;;;5.05;1.55;;;;;;;;;;5052497;28;20071;-66
2022/09/03 14:20:12;;;;;;;2.83;1.42;;;;;;;;;;5036453;28;20148;-66
2022/09/03 14:22:55;;;;;;;4.82;1.73;;;;;;;;;;5012576;28;20054;-68
2022/09/03 14:25:27;;;;;;;2.70;1.30;;;;;;;;;;5012651;28;20050;-66
2022/09/03 14:28:40;;;;;;;5.28;1.63;;;;;;;;;;4996808;28;20050;-66
2022/09/03 14:31:17;;;;;;;2.55;1.15;;;;;;;;;;4878659;29;20065;-67
2022/09/03 14:33:53;;;;;;;2.63;0.98;;;;;;;;;;4862644;29;20056;-67
2022/09/03 14:36:29;;;;;;;3.28;1.25;;;;;;;;;;4878490;29;20061;-67
2022/09/03 14:39:12;;;;;;;1.30;0.82;;;;;;;;;;4878450;29;20057;-66
2022/09/03 14:41:55;;;;;;;4.53;1.73;;;;;;;;;;4863496;29;20061;-68
2022/09/03 14:44:53;;;;;;;2.97;1.55;;;;;;;;;;4878187;29;20049;-66
2022/09/03 14:47:43;;;;;;;;;;;;;;;;;;4847986;29;20060;-72
2022/09/03 14:50:33;;;;;;;5.00;1.42;;;;;;;;;;4863047;29;19923;-65
2022/09/03 14:53:30;;;;;;;4.03;1.73;;;;;;;;;;4876586;29;20434;-66
2022/09/03 14:56:36;;;;;;;1.80;1.10;;;;;;;;;;4877950;29;20049;-66
2022/09/03 14:59:22;;;;;;;5.90;1.35;;;;;;;;;;4792404;29;20443;-70
2022/09/03 15:02:21;;;;;;;5.15;1.52;;;;;;;;;;4859420;29;20065;-69
2022/09/03 15:05:17;;;;;;;5.05;1.40;;;;;;;;;;4845546;29;20057;-66
2022/09/03 15:07:58;;;;;;;1.55;0.63;;;;;;;;;;4874286;29;20076;-70
2022/09/03 15:10:57;;;;;;;3.47;1.30;;;;;;;;;;4895162;29;20060;-69
2022/09/03 15:13:35;;;;;;;2.28;0.93;;;;;;;;;;4877797;29;20457;-67
2022/09/03 15:16:20;;;;;;;3.88;1.70;;;;;;;;;;4893348;29;20509;-67
2022/09/03 15:19:00;;;;;;;4.63;1.13;;;;;;;;;;4877838;29;20060;-67
2022/09/03 15:21:42;;;;;;;5.50;0.80;;;;;;;;;;4877781;29;20045;-65
2022/09/03 15:24:47;;;;;;;3.50;1.15;;;;;;;;;;4877634;29;20061;-68
2022/09/03 15:27:43;;;;;;;3.50;1.33;;;;;;;;;;4877752;29;20473;-67
2022/09/03 15:30:22;;;;;;;6.70;2.13;;;;;;;;;;4912885;28;20055;-66
2022/09/03 15:33:26;;;;;;;1.77;1.10;;;;;;;;;;4921383;29;20047;-69
2022/09/03 15:36:11;;;;;;;3.30;1.17;;;;;;;;;;4919049;29;20097;-67
2022/09/03 15:38:59;;;;;;;2.90;1.15;;;;;;;;;;4917808;29;20495;-68
2022/09/03 15:41:32;;;;;;;1.75;0.80;;;;;;;;;;4919148;29;20055;-67
2022/09/03 15:44:08;;;;;;;2.05;0.95;;;;;;;;;;4933901;29;20504;-66
2022/09/03 15:47:07;;;;;;;5.50;0.70;;;;;;;;;;4952604;28;20067;-67
2022/09/03 15:49:58;;;;;;;3.33;1.48;;;;;;;;;;4952877;28;20056;-66
2022/09/03 15:52:37;;;;;;;4.68;1.10;;;;;;;;;;4952903;29;20059;-69
2022/09/03 15:55:21;;;;;;;3.53;0.73;;;;;;;;;;4920874;29;20094;-67
2022/09/03 15:58:03;;;;;;;4.75;1.00;;;;;;;;;;4952589;29;20508;-66
2022/09/03 16:00:59;;;;;;;1.52;0.82;;;;;;;;;;4952793;29;20062;-70
2022/09/03 16:04:08;;;;;;;2.53;0.90;;;;;;;;;;4952754;29;20055;-67
2022/09/03 16:07:02;;;;;;;1.63;0.60;;;;;;;;;;4936730;29;20058;-66